Time;durP1;ratioP1;P1;durP2;ratioP2;P2;SDS_P1;SDS_P2;PMS_P1;PMS_P2;Temp;Humidity;BMP_temperature;BMP_pressure;BME280_temperature;BME280_humidity;BME280_pressure;Samples;Min_cycle;Max_cycle;Signal;HPM_P1;HPM_P2
2022/11/18 00:01:15;;;;;;;37.25;7.43;;;;;;;9.38;100.00;99045.09;5085060;28;20052;-82
2022/11/18 00:03:43;;;;;;;20.20;6.43;;;;;;;9.50;100.00;99046.13;5088337;28;20052;-82
2022/11/18 00:06:13;;;;;;;23.85;5.50;;;;;;;9.41;100.00;99065.81;5086705;28;20048;-82
2022/11/18 00:08:41;;;;;;;31.23;7.40;;;;;;;9.22;100.00;99049.56;5084590;28;20052;-83
2022/11/18 00:14:17;;;;;;;24.20;5.70;;;;;;;9.32;100.00;99058.53;5088621;28;20043;-82
2022/11/18 00:14:21;;;;;;;27.00;5.07;;;;;;;9.24;100.00;99050.28;5089387;28;20052;-82
2022/11/18 00:16:52;;;;;;;24.42;7.40;;;;;;;9.51;100.00;99071.34;5087172;28;20066;-83
2022/11/18 00:19:21;;;;;;;22.88;6.22;;;;;;;9.49;100.00;99062.72;5087637;28;20406;-83
2022/11/18 00:21:48;;;;;;;33.72;6.65;;;;;;;9.34;100.00;99074.13;5070999;28;20047;-83
2022/11/18 00:24:15;;;;;;;23.10;6.40;;;;;;;9.40;100.00;99071.97;5085698;28;20846;-82
2022/11/18 00:26:42;;;;;;;27.90;6.18;;;;;;;9.53;100.00;99050.34;5069790;28;20067;-82
2022/11/18 00:29:09;;;;;;;26.15;6.30;;;;;;;9.72;100.00;99063.13;5088343;28;20057;-83
2022/11/18 00:31:37;;;;;;;31.88;7.45;;;;;;;9.73;100.00;99083.94;5069688;28;20044;-82
2022/11/18 00:34:05;;;;;;;33.72;6.50;;;;;;;9.64;100.00;99074.06;5067313;28;20910;-82
2022/11/18 00:36:32;;;;;;;27.02;7.47;;;;;;;9.70;100.00;99073.66;5086510;28;20048;-83
2022/11/18 00:38:58;;;;;;;30.35;6.85;;;;;;;9.30;100.00;99076.06;5086736;28;20623;-82
2022/11/18 00:42:49;;;;;;;26.67;6.00;;;;;;;9.36;100.00;99057.41;5069332;28;20052;-82
2022/11/18 00:44:11;;;;;;;33.92;7.97;;;;;;;9.66;100.00;99093.91;5087575;28;20044;-82
2022/11/18 00:46:39;;;;;;;21.40;5.65;;;;;;;9.55;100.00;99082.44;5081959;28;20044;-82
2022/11/18 00:49:06;;;;;;;32.50;7.55;;;;;;;9.44;100.00;99076.09;5075038;28;20703;-82
2022/11/18 00:51:33;;;;;;;27.83;6.85;;;;;;;9.50;100.00;99051.38;5086336;28;20044;-82
2022/11/18 00:54:01;;;;;;;21.88;5.65;;;;;;;9.71;100.00;99093.66;5085927;28;20436;-82
2022/11/18 00:56:28;;;;;;;24.42;5.53;;;;;;;9.53;100.00;99069.47;5081922;28;20058;-82
2022/11/18 00:58:55;;;;;;;19.10;6.18;;;;;;;9.64;100.00;99079.28;5088127;28;20051;-82
2022/11/18 01:01:22;;;;;;;45.65;9.82;;;;;;;9.57;100.00;99073.56;5084615;28;20045;-82
2022/11/18 01:03:49;;;;;;;35.85;5.97;;;;;;;9.65;100.00;99083.56;5069098;28;20463;-82
2022/11/18 01:06:16;;;;;;;32.25;6.45;;;;;;;9.58;100.00;99082.25;5071258;28;20052;-82
2022/11/18 01:08:43;;;;;;;30.25;6.05;;;;;;;9.55;100.00;99080.66;5063143;28;20554;-82
2022/11/18 01:13:55;;;;;;;34.00;7.50;;;;;;;9.47;100.00;99088.97;5087057;28;20785;-82
2022/11/18 01:16:24;;;;;;;20.42;4.55;;;;;;;9.48;100.00;99084.59;5067926;28;20051;-83
2022/11/18 01:18:51;;;;;;;26.13;4.82;;;;;;;9.56;100.00;99086.72;5067405;28;20044;-83
2022/11/18 01:21:20;;;;;;;24.63;5.80;;;;;;;9.58;100.00;99075.28;5097093;28;20040;-83
2022/11/18 01:23:47;;;;;;;27.33;6.00;;;;;;;9.63;100.00;99070.59;5068112;28;20052;-82
2022/11/18 01:26:15;;;;;;;31.50;7.60;;;;;;;9.82;100.00;99103.47;5089379;28;20576;-83
2022/11/18 01:28:44;;;;;;;25.25;7.88;;;;;;;9.70;100.00;99084.13;5071351;28;20161;-82
2022/11/18 01:31:16;;;;;;;35.17;7.25;;;;;;;9.84;100.00;99063.25;5069140;28;20048;-81
2022/11/18 01:33:44;;;;;;;28.85;8.15;;;;;;;9.85;100.00;99077.16;5067754;28;20056;-82
2022/11/18 01:36:26;;;;;;;32.55;6.85;;;;;;;9.77;100.00;99101.13;5070631;28;20059;-84
2022/11/18 01:38:54;;;;;;;28.67;6.55;;;;;;;9.75;100.00;99078.63;5083256;28;20044;-82
2022/11/18 01:41:24;;;;;;;30.60;6.72;;;;;;;9.87;100.00;99077.88;5086316;28;20056;-82
2022/11/18 01:44:01;;;;;;;27.60;6.00;;;;;;;9.98;100.00;99082.44;5088564;28;20056;-83
2022/11/18 01:46:32;;;;;;;28.60;6.18;;;;;;;9.71;100.00;99092.81;5086068;28;20048;-83
2022/11/18 01:49:06;;;;;;;26.45;6.05;;;;;;;9.59;100.00;99069.09;5078202;28;20056;-83
2022/11/18 01:51:37;;;;;;;25.35;6.55;;;;;;;9.63;100.00;99061.91;5084453;28;20048;-82
2022/11/18 01:54:10;;;;;;;29.38;5.82;;;;;;;9.66;100.00;99075.63;5065511;28;20044;-82
2022/11/18 01:56:44;;;;;;;32.97;7.35;;;;;;;9.71;100.00;99077.97;5065046;28;20443;-82
2022/11/18 01:59:13;;;;;;;23.27;7.03;;;;;;;9.78;100.00;99091.53;5080329;28;20125;-83
2022/11/18 02:01:41;;;;;;;25.63;6.30;;;;;;;9.86;100.00;99056.13;5101231;28;20040;-81
2022/11/18 02:04:08;;;;;;;36.90;8.07;;;;;;;9.82;100.00;99069.47;5102923;28;20045;-82
2022/11/18 02:06:35;;;;;;;24.75;5.38;;;;;;;9.67;100.00;99072.09;5084230;28;20417;-82
2022/11/18 02:09:03;;;;;;;26.63;5.82;;;;;;;9.78;100.00;99061.00;5068218;28;20044;-83
2022/11/18 02:11:50;;;;;;;34.60;7.00;;;;;;;9.87;100.00;99049.13;5071044;28;20052;-83
2022/11/18 02:14:33;;;;;;;29.80;6.32;;;;;;;10.01;100.00;99077.88;5084378;28;20512;-83
2022/11/18 02:17:00;;;;;;;;;;;;;;;9.91;100.00;99087.22;5085036;28;20559;-82
2022/11/18 02:19:45;;;;;;;26.60;5.90;;;;;;;9.84;100.00;99076.31;5085979;28;19920;-83
2022/11/18 02:22:21;;;;;;;29.63;6.10;;;;;;;9.74;100.00;99071.72;5085541;28;20493;-83
2022/11/18 02:25:10;;;;;;;28.58;6.65;;;;;;;9.79;100.00;99082.72;5078957;28;20055;-83
2022/11/18 02:27:52;;;;;;;29.70;6.22;;;;;;;9.83;100.00;99077.22;5096593;28;20523;-83
2022/11/18 02:30:19;;;;;;;17.08;5.22;;;;;;;9.70;100.00;99071.06;5085144;28;20053;-83
2022/11/18 02:33:10;;;;;;;31.13;6.38;;;;;;;9.75;100.00;99074.22;5069286;28;21109;-83
2022/11/18 02:35:55;;;;;;;33.40;7.30;;;;;;;9.56;100.00;99052.75;5088059;28;20044;-83
2022/11/18 02:38:36;;;;;;;30.40;5.90;;;;;;;9.92;100.00;99065.38;5100879;28;20044;-82
2022/11/18 02:41:11;;;;;;;21.30;5.07;;;;;;;9.71;100.00;99067.53;5083395;28;20507;-83
2022/11/18 02:44:08;;;;;;;32.75;6.35;;;;;;;9.94;100.00;99073.13;5086716;28;20593;-83
2022/11/18 02:46:39;;;;;;;26.08;7.13;;;;;;;9.89;100.00;99078.63;5083509;28;20412;-83
2022/11/18 02:49:12;;;;;;;29.08;8.32;;;;;;;9.72;100.00;99071.84;5082491;28;20448;-83
2022/11/18 02:51:41;;;;;;;31.13;6.90;;;;;;;9.75;100.00;99071.63;5067970;28;20431;-84
2022/11/18 02:54:10;;;;;;;21.20;6.43;;;;;;;9.89;100.00;99079.47;5081988;28;20044;-83
2022/11/18 02:56:38;;;;;;;28.20;7.10;;;;;;;9.97;100.00;99060.69;5085029;28;20040;-83
2022/11/18 02:59:04;;;;;;;21.83;6.88;;;;;;;9.64;100.00;99087.13;5063631;28;20053;-83
2022/11/18 03:01:34;;;;;;;34.30;7.50;;;;;;;9.80;100.00;99081.81;5088421;28;20044;-83
2022/11/18 03:04:01;;;;;;;31.73;6.60;;;;;;;9.72;100.00;99079.66;5083035;28;20044;-83
2022/11/18 03:06:42;;;;;;;30.75;6.68;;;;;;;9.58;100.00;99054.38;5065744;28;20039;-83
2022/11/18 03:09:30;;;;;;;32.72;6.43;;;;;;;9.81;100.00;99096.53;5083250;28;20044;-83
2022/11/18 03:12:27;;;;;;;38.15;8.60;;;;;;;9.45;100.00;99085.59;5078348;28;20048;-84
2022/11/18 03:15:06;;;;;;;36.45;7.18;;;;;;;9.53;100.00;99072.09;5080194;28;20048;-84
2022/11/18 03:18:03;;;;;;;31.00;7.25;;;;;;;9.55;100.00;99095.50;5082171;28;20048;-84
2022/11/18 03:20:41;;;;;;;31.20;5.97;;;;;;;9.43;100.00;99103.13;5080297;28;20041;-83
2022/11/18 03:23:18;;;;;;;32.08;6.70;;;;;;;9.55;100.00;99103.34;5063516;28;20051;-84
2022/11/18 03:25:57;;;;;;;30.90;8.15;;;;;;;9.29;100.00;99100.50;5078393;28;20048;-84
2022/11/18 03:28:38;;;;;;;26.48;6.13;;;;;;;9.34;100.00;99098.44;5069154;28;20048;-84
2022/11/18 03:31:09;;;;;;;27.38;6.10;;;;;;;9.43;100.00;99092.69;5098008;28;20052;-84
2022/11/18 03:33:41;;;;;;;30.13;7.10;;;;;;;9.19;100.00;99094.13;5066613;28;20052;-84
2022/11/18 03:36:11;;;;;;;27.23;6.95;;;;;;;9.24;100.00;99092.06;5067764;28;20048;-84
2022/11/18 03:38:49;;;;;;;34.85;6.75;;;;;;;9.17;100.00;99098.59;5068704;28;20051;-84
2022/11/18 03:41:18;;;;;;;29.25;6.63;;;;;;;9.39;100.00;99092.97;5083498;28;20432;-84
2022/11/18 03:43:50;;;;;;;34.33;7.38;;;;;;;9.32;100.00;99055.91;5082396;28;20611;-84
2022/11/18 03:46:31;;;;;;;26.77;6.75;;;;;;;9.18;100.00;99085.44;5071067;28;20048;-84
2022/11/18 03:48:58;;;;;;;39.33;8.65;;;;;;;9.60;100.00;99091.69;5080422;28;20122;-84
2022/11/18 03:51:32;;;;;;;31.77;7.43;;;;;;;9.47;100.00;99088.97;5084232;28;20449;-84
2022/11/18 03:54:10;;;;;;;27.05;7.95;;;;;;;9.38;100.00;99091.28;5069011;28;20056;-84
2022/11/18 03:56:44;;;;;;;28.95;7.30;;;;;;;9.42;100.00;99108.44;5078117;28;20126;-84
2022/11/18 03:59:26;;;;;;;34.30;7.38;;;;;;;9.32;100.00;99106.38;5068205;28;20055;-84
2022/11/18 04:02:21;;;;;;;32.35;8.10;;;;;;;9.54;100.00;99099.03;5072297;28;20496;-84
2022/11/18 04:04:51;;;;;;;40.17;8.32;;;;;;;9.45;100.00;99080.38;5076887;28;20071;-85
2022/11/18 04:07:29;;;;;;;40.55;7.05;;;;;;;9.50;100.00;99093.16;5073989;28;20143;-84
2022/11/18 04:10:19;;;;;;;26.63;8.25;;;;;;;9.53;100.00;99084.31;5087024;28;20049;-84
2022/11/18 04:12:58;;;;;;;38.88;8.07;;;;;;;9.51;100.00;99084.41;5089641;28;20052;-84
2022/11/18 04:15:32;;;;;;;33.53;8.23;;;;;;;9.60;100.00;99094.31;5087540;28;20044;-84
2022/11/18 04:17:58;;;;;;;39.58;8.38;;;;;;;9.62;100.00;99094.22;5090644;28;20413;-84
2022/11/18 04:20:27;;;;;;;38.33;8.20;;;;;;;9.50;100.00;99083.53;5087419;28;20067;-84
2022/11/18 04:22:54;;;;;;;37.05;8.13;;;;;;;9.49;100.00;99068.81;5067220;28;20045;-84
2022/11/18 04:25:20;;;;;;;43.33;8.90;;;;;;;9.40;100.00;99085.03;5086947;28;20412;-84
2022/11/18 04:27:47;;;;;;;30.92;7.75;;;;;;;9.48;100.00;99090.63;5072680;28;20374;-84
2022/11/18 04:30:14;;;;;;;29.02;6.80;;;;;;;9.28;100.00;99076.16;5071593;28;20055;-84
2022/11/18 04:32:41;;;;;;;30.33;8.10;;;;;;;9.50;100.00;99085.31;5092930;28;20477;-83
2022/11/18 04:35:08;;;;;;;39.40;8.20;;;;;;;9.33;100.00;99088.94;5073119;28;20048;-84
2022/11/18 04:37:35;;;;;;;32.08;7.68;;;;;;;9.45;100.00;99116.94;5074454;28;20044;-84
2022/11/18 04:40:02;;;;;;;28.40;5.82;;;;;;;9.43;100.00;99092.69;5088102;28;20056;-84
2022/11/18 04:42:29;;;;;;;26.38;8.30;;;;;;;9.30;100.00;99076.91;5088211;28;20083;-84
2022/11/18 04:44:56;;;;;;;29.38;6.10;;;;;;;9.55;100.00;99085.91;5097229;28;20067;-84
2022/11/18 04:47:23;;;;;;;35.47;8.80;;;;;;;9.47;100.00;99086.38;5089057;28;20043;-84
2022/11/18 04:49:50;;;;;;;28.45;8.15;;;;;;;9.58;100.00;99059.59;5083678;28;20049;-84
2022/11/18 04:52:17;;;;;;;37.20;8.35;;;;;;;9.77;100.00;99110.75;5084985;28;20425;-84
2022/11/18 04:54:44;;;;;;;37.38;8.23;;;;;;;9.67;100.00;99092.16;5069032;28;20048;-84
2022/11/18 04:57:10;;;;;;;35.90;7.20;;;;;;;9.46;100.00;99094.28;5086471;28;20056;-84
2022/11/18 04:59:37;;;;;;;30.10;7.05;;;;;;;9.45;100.00;99101.25;5085471;28;20044;-84
2022/11/18 05:02:04;;;;;;;32.03;7.82;;;;;;;9.22;100.00;99053.00;5064366;28;20101;-84
2022/11/18 05:04:33;;;;;;;40.00;7.85;;;;;;;9.58;100.00;99098.78;5069132;28;20052;-84
2022/11/18 05:07:02;;;;;;;29.75;8.27;;;;;;;9.29;100.00;99056.09;5084921;28;20052;-84
2022/11/18 05:09:28;;;;;;;39.90;9.57;;;;;;;9.51;100.00;99115.75;5081293;28;20052;-84
2022/11/18 05:14:44;;;;;;;35.22;8.05;;;;;;;9.32;100.00;99061.13;5084788;28;20056;-84
2022/11/18 05:17:16;;;;;;;37.70;10.47;;;;;;;9.45;100.00;99113.50;5067532;28;21344;-84
2022/11/18 05:19:42;;;;;;;27.70;6.60;;;;;;;9.33;100.00;99104.63;5084763;28;20044;-84
2022/11/18 05:22:09;;;;;;;32.35;8.27;;;;;;;9.28;100.00;99086.59;5084395;28;20049;-84
2022/11/18 05:24:36;;;;;;;37.80;7.82;;;;;;;9.30;100.00;99089.13;5085936;28;20130;-84
2022/11/18 05:27:03;;;;;;;40.75;7.35;;;;;;;9.34;100.00;99081.94;5087573;28;20048;-84
2022/11/18 05:29:30;;;;;;;40.83;8.27;;;;;;;9.28;100.00;99072.72;5078740;28;20395;-84
2022/11/18 05:31:56;;;;;;;40.17;7.82;;;;;;;9.32;100.00;99085.47;5093182;28;20047;-84
2022/11/18 05:34:23;;;;;;;32.83;7.20;;;;;;;9.53;100.00;99093.00;5086689;28;20436;-84
2022/11/18 05:36:50;;;;;;;38.38;7.65;;;;;;;9.06;100.00;99083.53;5068945;28;20763;-84
2022/11/18 05:39:17;;;;;;;32.40;7.90;;;;;;;9.44;100.00;99091.75;5065257;28;20053;-84
2022/11/18 05:44:29;;;;;;;45.67;10.13;;;;;;;9.59;100.00;99069.09;5096596;28;20052;-84
2022/11/18 05:46:56;;;;;;;38.97;8.85;;;;;;;9.65;100.00;99100.09;5080307;28;20056;-84
2022/11/18 05:49:23;;;;;;;35.22;8.75;;;;;;;9.40;100.00;99084.19;5071252;28;20052;-84
2022/11/18 05:51:49;;;;;;;30.75;7.78;;;;;;;9.23;100.00;99048.63;5083162;28;20082;-84
2022/11/18 05:54:18;;;;;;;32.83;8.98;;;;;;;9.72;100.00;99086.66;5069514;28;20367;-84
2022/11/18 05:56:45;;;;;;;35.40;8.48;;;;;;;9.48;100.00;99061.06;5083877;28;20108;-84
2022/11/18 05:59:15;;;;;;;36.72;10.35;;;;;;;9.61;100.00;99087.28;5068698;28;20113;-84
2022/11/18 06:01:58;;;;;;;36.35;9.10;;;;;;;9.92;100.00;99090.69;5074333;28;20058;-84
2022/11/18 06:04:33;;;;;;;41.58;9.40;;;;;;;9.83;100.00;99094.69;5073425;28;20074;-84
2022/11/18 06:07:15;;;;;;;43.10;8.35;;;;;;;9.85;100.00;99098.88;5088260;28;20048;-84
2022/11/18 06:09:46;;;;;;;36.97;8.70;;;;;;;9.59;100.00;99081.31;5086143;28;20045;-85
2022/11/18 06:12:17;;;;;;;42.22;9.27;;;;;;;9.65;100.00;99084.41;5072790;28;20048;-84
2022/11/18 06:14:48;;;;;;;32.92;7.30;;;;;;;9.81;100.00;99091.31;5090545;28;20134;-84
2022/11/18 06:17:20;;;;;;;30.90;7.72;;;;;;;9.48;100.00;99038.38;5091317;28;20059;-84
2022/11/18 06:19:47;;;;;;;37.22;8.02;;;;;;;9.71;100.00;99077.16;5091446;28;20048;-84
2022/11/18 06:22:14;;;;;;;37.33;8.20;;;;;;;9.44;100.00;99044.75;5087603;28;20056;-84
2022/11/18 06:24:42;;;;;;;44.35;8.95;;;;;;;9.78;100.00;99092.34;5072511;28;20043;-84
2022/11/18 06:27:10;;;;;;;32.13;8.95;;;;;;;9.60;100.00;99078.63;5068263;28;20106;-84
2022/11/18 06:29:36;;;;;;;48.20;8.70;;;;;;;9.73;100.00;99083.13;5086035;28;20058;-84
2022/11/18 06:32:03;;;;;;;33.80;7.47;;;;;;;9.78;100.00;99101.97;5085626;28;20044;-84
2022/11/18 06:34:30;;;;;;;33.10;8.07;;;;;;;9.52;100.00;99048.66;5068179;28;20067;-84
2022/11/18 06:37:17;;;;;;;40.53;8.68;;;;;;;9.79;100.00;99080.13;5081649;28;20389;-84
2022/11/18 06:39:44;;;;;;;52.05;8.95;;;;;;;9.64;100.00;99082.72;5089260;28;20063;-85
2022/11/18 06:43:37;;;;;;;50.08;12.00;;;;;;;9.71;100.00;99074.53;5075209;28;20649;-84
2022/11/18 06:44:58;;;;;;;35.83;10.70;;;;;;;9.61;100.00;99087.28;5087422;28;20405;-84
2022/11/18 06:47:25;;;;;;;41.45;9.25;;;;;;;9.68;100.00;99065.09;5073618;28;20048;-84
2022/11/18 06:49:52;;;;;;;28.73;8.35;;;;;;;9.55;100.00;99075.44;5075204;28;20070;-82
2022/11/18 06:52:21;;;;;;;53.78;9.18;;;;;;;9.62;100.00;99052.41;5067041;28;20453;-82
2022/11/18 06:54:47;;;;;;;41.78;8.88;;;;;;;9.92;100.00;99088.06;5069334;28;20044;-84
2022/11/18 06:57:15;;;;;;;41.63;11.25;;;;;;;9.94;100.00;99083.59;5073726;28;20405;-84
2022/11/18 06:59:42;;;;;;;29.15;9.45;;;;;;;9.53;100.00;99084.31;5074951;28;20052;-83
2022/11/18 07:02:08;;;;;;;35.75;9.27;;;;;;;9.45;100.00;99058.63;5075132;28;20047;-84
2022/11/18 07:04:38;;;;;;;36.83;9.80;;;;;;;9.73;100.00;99091.78;5098771;28;20049;-84
2022/11/18 07:07:08;;;;;;;44.38;7.90;;;;;;;9.51;100.00;99079.19;5098028;28;20105;-84
2022/11/18 07:09:36;;;;;;;44.88;9.07;;;;;;;9.74;100.00;99111.78;5071563;28;20052;-85
2022/11/18 07:12:03;;;;;;;46.33;9.48;;;;;;;9.69;100.00;99106.81;5066304;28;20058;-84
2022/11/18 07:14:33;;;;;;;40.03;9.88;;;;;;;9.78;100.00;99096.75;5073262;28;20417;-84
2022/11/18 07:17:00;;;;;;;50.08;11.43;;;;;;;9.37;100.00;99058.28;5073211;28;20052;-82
2022/11/18 07:19:27;;;;;;;34.47;10.10;;;;;;;9.67;100.00;99084.31;5077920;28;20059;-83
2022/11/18 07:22:01;;;;;;;28.67;8.93;;;;;;;9.68;100.00;99119.97;5073228;28;20059;-83
2022/11/18 07:24:27;;;;;;;38.58;9.90;;;;;;;9.35;100.00;99066.19;5072461;28;20667;-85
2022/11/18 07:26:54;;;;;;;55.67;11.02;;;;;;;9.63;100.00;99094.13;5090657;28;20130;-83
2022/11/18 07:29:21;;;;;;;34.97;9.65;;;;;;;9.55;100.00;99085.06;5082167;28;20486;-83
2022/11/18 07:31:47;;;;;;;43.92;10.82;;;;;;;9.67;100.00;99119.13;5085836;28;20047;-82
2022/11/18 07:34:14;;;;;;;42.35;10.63;;;;;;;9.71;100.00;99085.00;5070923;28;20048;-82
2022/11/18 07:36:42;;;;;;;40.50;10.73;;;;;;;9.77;100.00;99124.63;5075901;28;20052;-82
2022/11/18 07:39:08;;;;;;;45.33;10.77;;;;;;;9.36;100.00;99077.47;5087009;28;20055;-83
2022/11/18 07:41:35;;;;;;;36.83;9.88;;;;;;;9.43;100.00;99103.13;5088100;28;20040;-83
2022/11/18 07:44:03;;;;;;;51.50;11.98;;;;;;;9.57;100.00;99123.22;5098696;28;20381;-84
2022/11/18 07:46:32;;;;;;;40.92;10.40;;;;;;;9.82;100.00;99125.22;5095677;28;20495;-84
2022/11/18 07:49:01;;;;;;;46.17;12.93;;;;;;;9.54;100.00;99112.94;5078290;28;20496;-84
2022/11/18 07:51:31;;;;;;;40.08;10.95;;;;;;;9.82;100.00;99129.59;5094587;28;20094;-84
2022/11/18 07:53:57;;;;;;;49.58;13.75;;;;;;;9.59;100.00;99065.66;5058874;28;20051;-84
2022/11/18 07:56:24;;;;;;;62.85;13.10;;;;;;;9.85;100.00;99108.50;5075167;28;20055;-81
2022/11/18 07:58:55;;;;;;;41.58;13.10;;;;;;;9.96;100.00;99134.00;5094905;28;20043;-81
2022/11/18 08:01:23;;;;;;;38.75;11.27;;;;;;;9.81;100.00;99136.59;5095018;28;20059;-82
2022/11/18 08:03:50;;;;;;;44.88;12.50;;;;;;;9.59;100.00;99091.78;5082983;28;20048;-81
2022/11/18 08:06:18;;;;;;;50.97;13.27;;;;;;;9.64;100.00;99087.94;5085986;28;20477;-82
2022/11/18 08:08:46;;;;;;;61.75;16.33;;;;;;;9.67;100.00;99120.91;5077355;28;20048;-81
2022/11/18 08:11:15;;;;;;;50.25;12.25;;;;;;;9.85;100.00;99132.88;5077335;28;20048;-81
2022/11/18 08:13:47;;;;;;;60.33;13.70;;;;;;;9.81;100.00;99113.09;5093915;28;20048;-81
2022/11/18 08:16:19;;;;;;;49.92;14.57;;;;;;;9.75;100.00;99115.22;5075429;28;20441;-81
2022/11/18 08:18:46;;;;;;;58.65;13.52;;;;;;;9.78;100.00;99115.88;5093763;28;20513;-80
2022/11/18 08:21:14;;;;;;;62.88;15.63;;;;;;;9.98;100.00;99134.75;5094774;28;20051;-80
2022/11/18 08:23:41;;;;;;;50.03;12.82;;;;;;;9.66;100.00;99148.81;5078080;28;20039;-81
2022/11/18 08:26:18;;;;;;;41.80;13.57;;;;;;;9.93;100.00;99145.47;5094446;28;20089;-81
2022/11/18 08:28:45;;;;;;;53.03;15.73;;;;;;;9.90;100.00;99145.69;5075559;28;20048;-81
2022/11/18 08:31:15;;;;;;;51.05;13.25;;;;;;;9.95;100.00;99166.28;5090705;28;20497;-81
2022/11/18 08:33:42;;;;;;;43.05;14.85;;;;;;;9.71;100.00;99138.09;5077665;28;20051;-81
2022/11/18 08:36:18;;;;;;;63.10;14.27;;;;;;;9.96;100.00;99160.16;5081311;28;20055;-81
2022/11/18 08:38:44;;;;;;;62.75;13.88;;;;;;;9.85;100.00;99168.63;5082980;28;20052;-81
2022/11/18 08:41:24;;;;;;;45.72;12.32;;;;;;;9.58;100.00;99160.63;5080188;28;20377;-80
2022/11/18 08:43:51;;;;;;;41.97;12.25;;;;;;;9.21;100.00;99141.91;5064905;28;20405;-82
2022/11/18 08:46:18;;;;;;;43.65;14.38;;;;;;;9.39;100.00;99142.59;5076392;28;20511;-82
2022/11/18 08:48:45;;;;;;;47.35;13.65;;;;;;;9.43;100.00;99159.78;5094301;28;20047;-82
2022/11/18 08:51:12;;;;;;;55.28;13.85;;;;;;;9.50;100.00;99161.94;5076554;28;20048;-81
2022/11/18 08:53:39;;;;;;;40.92;11.35;;;;;;;9.61;100.00;99215.34;5075730;28;20048;-81
2022/11/18 08:56:06;;;;;;;57.97;13.35;;;;;;;9.67;100.00;99209.78;5077759;28;20398;-81
2022/11/18 08:58:33;;;;;;;56.03;14.85;;;;;;;9.55;100.00;99181.75;5075937;28;20059;-82
2022/11/18 09:01:05;;;;;;;59.78;14.70;;;;;;;9.63;100.00;99197.78;5066555;28;20094;-82
2022/11/18 09:03:32;;;;;;;58.78;16.30;;;;;;;9.40;100.00;99206.97;5093274;28;20657;-82
2022/11/18 09:06:09;;;;;;;55.42;16.10;;;;;;;9.67;100.00;99213.22;5093797;28;20048;-82
2022/11/18 09:08:36;;;;;;;44.80;14.85;;;;;;;9.36;100.00;99168.88;5082634;28;20500;-81
2022/11/18 09:11:21;;;;;;;60.63;14.07;;;;;;;9.78;100.00;99227.44;5073275;28;20046;-81
2022/11/18 09:13:52;;;;;;;50.90;12.93;;;;;;;9.59;100.00;99227.66;5105130;27;20044;-81
2022/11/18 09:16:41;;;;;;;52.88;14.98;;;;;;;9.45;100.00;99182.25;5090504;28;20044;-81
2022/11/18 09:19:08;;;;;;;45.47;12.88;;;;;;;9.54;100.00;99201.78;5070617;28;20390;-81
2022/11/18 09:21:54;;;;;;;45.63;12.95;;;;;;;9.38;100.00;99221.88;5076409;28;20060;-82
2022/11/18 09:24:21;;;;;;;48.97;12.32;;;;;;;9.48;100.00;99215.22;5091510;28;20040;-84
2022/11/18 09:26:48;;;;;;;37.92;12.75;;;;;;;9.48;100.00;99210.81;5065699;28;20052;-83
2022/11/18 09:29:15;;;;;;;54.58;13.88;;;;;;;9.43;100.00;99207.63;5079948;28;20134;-84
2022/11/18 09:31:42;;;;;;;54.95;13.63;;;;;;;9.60;100.00;99224.97;5076255;28;20051;-84
2022/11/18 09:34:09;;;;;;;57.15;16.05;;;;;;;9.43;100.00;99197.16;5080498;28;20047;-84
2022/11/18 09:36:36;;;;;;;45.03;14.15;;;;;;;9.84;100.00;99277.59;5075833;28;20046;-83
2022/11/18 09:39:03;;;;;;;46.50;13.93;;;;;;;9.84;100.00;99250.59;5075578;28;20051;-84
2022/11/18 09:41:47;;;;;;;45.60;12.73;;;;;;;9.57;100.00;99250.41;5074773;28;20056;-84
2022/11/18 09:44:46;;;;;;;56.47;14.32;;;;;;;9.82;100.00;99263.75;5071343;28;20044;-83
2022/11/18 09:47:16;;;;;;;46.45;14.00;;;;;;;9.73;100.00;99266.91;5051944;28;20377;-84
2022/11/18 09:49:44;;;;;;;49.60;15.52;;;;;;;9.74;100.00;99276.44;5078012;28;20412;-84
2022/11/18 09:52:11;;;;;;;42.13;11.90;;;;;;;9.76;100.00;99276.34;5093369;28;20481;-84
2022/11/18 09:54:39;;;;;;;48.08;14.25;;;;;;;9.57;100.00;99269.53;5091596;28;20532;-84
2022/11/18 09:57:15;;;;;;;56.05;15.07;;;;;;;9.83;100.00;99296.81;5091249;28;20052;-84
2022/11/18 09:59:42;;;;;;;57.42;15.80;;;;;;;9.60;100.00;99258.94;5093228;28;20402;-84
2022/11/18 10:02:12;;;;;;;52.72;15.40;;;;;;;9.94;100.00;99297.97;5091849;28;20055;-84
2022/11/18 10:04:39;;;;;;;49.40;12.77;;;;;;;9.70;100.00;99261.84;5067386;28;20435;-84
2022/11/18 10:07:18;;;;;;;72.20;14.40;;;;;;;9.98;100.00;99302.09;5070647;28;20055;-83
2022/11/18 10:09:50;;;;;;;56.47;12.93;;;;;;;9.92;100.00;99286.75;5066963;28;20427;-84
2022/11/18 10:12:36;;;;;;;51.33;14.45;;;;;;;9.86;100.00;99278.34;5087783;28;20056;-82
2022/11/18 10:15:18;;;;;;;47.83;13.38;;;;;;;10.00;100.00;99295.00;5070195;28;20066;-83
2022/11/18 10:18:20;;;;;;;66.88;15.63;;;;;;;9.94;100.00;99270.03;5074409;28;20138;-82
2022/11/18 10:21:16;;;;;;;48.53;13.10;;;;;;;9.82;100.00;99291.66;5073020;28;20109;-83
2022/11/18 10:23:54;;;;;;;52.42;14.10;;;;;;;9.83;100.00;99294.19;5072437;28;20405;-82
2022/11/18 10:26:37;;;;;;;56.28;13.77;;;;;;;9.99;100.00;99307.22;5088780;28;20040;-83
2022/11/18 10:29:08;;;;;;;55.65;13.95;;;;;;;10.12;100.00;99311.75;5074123;28;20404;-82
2022/11/18 10:31:51;;;;;;;51.22;13.23;;;;;;;10.05;100.00;99327.78;5092331;28;20051;-83
2022/11/18 10:34:19;;;;;;;43.93;11.57;;;;;;;10.05;100.00;99324.31;5073168;28;20055;-82
2022/11/18 10:37:06;;;;;;;62.42;13.57;;;;;;;10.37;100.00;99347.78;5091620;28;20140;-82
2022/11/18 10:39:48;;;;;;;53.00;14.00;;;;;;;10.14;100.00;99355.19;5092484;28;20055;-82
2022/11/18 10:42:38;;;;;;;45.30;11.82;;;;;;;9.99;100.00;99322.91;5063746;28;20058;-81
2022/11/18 10:45:29;;;;;;;50.08;14.38;;;;;;;10.22;100.00;99336.44;5074052;28;20401;-82
2022/11/18 10:47:56;;;;;;;38.80;13.85;;;;;;;10.25;100.00;99360.66;5068482;28;20276;-82
2022/11/18 10:50:37;;;;;;;44.97;12.07;;;;;;;10.10;100.00;99382.44;5074926;28;20048;-83
2022/11/18 10:53:24;;;;;;;53.33;13.98;;;;;;;10.21;100.00;99347.81;5093975;28;20044;-82
2022/11/18 10:56:02;;;;;;;47.63;12.45;;;;;;;10.22;100.00;99358.19;5074604;28;20047;-82
2022/11/18 10:58:31;;;;;;;49.63;13.10;;;;;;;10.40;100.00;99345.84;5090814;28;20052;-83
2022/11/18 11:01:13;;;;;;;45.13;12.23;;;;;;;10.26;100.00;99358.88;5067547;28;20051;-82
2022/11/18 11:03:42;;;;;;;54.60;13.77;;;;;;;10.42;100.00;99348.38;5072161;28;20044;-83
2022/11/18 11:06:38;;;;;;;53.40;12.68;;;;;;;10.25;100.00;99338.84;5072624;28;20055;-83
2022/11/18 11:09:09;;;;;;;46.33;10.88;;;;;;;10.57;100.00;99373.66;5068736;28;20120;-82
2022/11/18 11:11:54;;;;;;;50.03;12.25;;;;;;;10.51;100.00;99394.09;5065214;28;20036;-83
2022/11/18 11:14:33;;;;;;;46.47;13.38;;;;;;;10.40;100.00;99403.41;5078499;28;20048;-86
2022/11/18 11:17:06;;;;;;;45.33;11.05;;;;;;;10.45;100.00;99369.97;5078275;28;20050;-86
2022/11/18 11:19:57;;;;;;;35.53;9.48;;;;;;;10.36;100.00;99391.44;5096695;28;20047;-84
2022/11/18 11:22:24;;;;;;;41.00;13.23;;;;;;;10.36;100.00;99349.59;5073293;28;20044;-84
2022/11/18 11:24:51;;;;;;;49.03;12.43;;;;;;;10.18;100.00;99356.69;5076731;28;20477;-81
2022/11/18 11:27:36;;;;;;;39.30;11.32;;;;;;;10.55;100.00;99393.84;5095082;28;20493;-86
2022/11/18 11:30:23;;;;;;;34.35;11.68;;;;;;;10.27;100.00;99348.31;5084839;28;20083;-84
2022/11/18 11:32:59;;;;;;;40.58;12.25;;;;;;;10.16;100.00;99349.84;5070757;28;20097;-85
2022/11/18 11:35:33;;;;;;;44.83;11.90;;;;;;;10.51;100.00;99399.31;5067157;28;20097;-84
2022/11/18 11:38:18;;;;;;;40.72;10.75;;;;;;;10.17;100.00;99356.78;5094619;28;20059;-85
2022/11/18 11:40:59;;;;;;;46.88;11.57;;;;;;;10.31;100.00;99411.78;5091760;28;20056;-85
2022/11/18 11:43:47;;;;;;;50.03;12.95;;;;;;;10.48;100.00;99402.13;5082548;28;20094;-83
2022/11/18 11:46:22;;;;;;;42.72;10.45;;;;;;;10.23;100.00;99372.97;5077212;28;20036;-86
2022/11/18 11:48:56;;;;;;;40.10;10.68;;;;;;;10.51;100.00;99394.94;5096739;28;20409;-86
2022/11/18 11:51:43;;;;;;;49.70;12.65;;;;;;;10.43;100.00;99397.16;5078597;28;20056;-84
2022/11/18 11:54:46;;;;;;;45.45;10.20;;;;;;;10.04;100.00;99344.41;5092791;28;20048;-85